Time;durP1;ratioP1;P1;durP2;ratioP2;P2;SDS_P1;SDS_P2;PMS_P1;PMS_P2;Temp;Humidity;BMP_temperature;BMP_pressure;BME280_temperature;BME280_humidity;BME280_pressure;Samples;Min_cycle;Max_cycle;Signal;HPM_P1;HPM_P2
2023/07/04 00:00:25;;;;;;;6.70;3.07;;;17.80;99.90;;;;;;4998961;28;20536;-71
2023/07/04 00:02:50;;;;;;;7.10;3.07;;;17.70;99.90;;;;;;4999949;28;20638;-71
2023/07/04 00:05:17;;;;;;;2.87;2.67;;;17.70;99.90;;;;;;4997899;28;20739;-71
2023/07/04 00:07:42;;;;;;;3.30;2.60;;;17.70;99.90;;;;;;4997153;28;20191;-71
2023/07/04 00:10:08;;;;;;;4.87;2.60;;;17.70;99.90;;;;;;4993622;28;20868;-71
2023/07/04 00:12:34;;;;;;;6.33;3.10;;;17.70;99.90;;;;;;4988726;28;20203;-71
2023/07/04 00:15:00;;;;;;;3.47;2.60;;;17.70;99.90;;;;;;4988438;28;20513;-71
2023/07/04 00:17:26;;;;;;;5.23;3.10;;;17.70;99.90;;;;;;4991641;28;20191;-71
2023/07/04 00:19:52;;;;;;;2.90;2.60;;;17.60;99.90;;;;;;4997962;28;20186;-71
2023/07/04 00:22:17;;;;;;;4.20;3.00;;;17.60;99.90;;;;;;4992560;28;20510;-71
2023/07/04 00:24:44;;;;;;;3.40;3.10;;;17.50;99.90;;;;;;5002908;28;20211;-71
2023/07/04 00:27:12;;;;;;;4.20;3.90;;;17.50;99.90;;;;;;4995811;28;20172;-71
2023/07/04 00:29:38;;;;;;;4.33;3.47;;;17.50;99.90;;;;;;4991512;28;20461;-71
2023/07/04 00:32:05;;;;;;;3.30;2.73;;;17.50;99.90;;;;;;4997974;28;20439;-71
2023/07/04 00:34:30;;;;;;;4.47;3.10;;;17.50;99.90;;;;;;4988888;28;20451;-71
2023/07/04 00:36:59;;;;;;;4.07;3.67;;;17.50;99.90;;;;;;4987823;28;20435;-71
2023/07/04 00:39:28;;;;;;;3.60;3.30;;;17.50;99.90;;;;;;4989765;28;20577;-71
2023/07/04 00:41:54;;;;;;;5.13;3.40;;;17.60;99.90;;;;;;4995297;28;20434;-71
2023/07/04 00:44:24;;;;;;;3.80;3.17;;;17.70;99.90;;;;;;4988565;28;20467;-71
2023/07/04 00:47:10;;;;;;;4.90;3.40;;;17.70;99.90;;;;;;4990961;28;20246;-71
2023/07/04 00:49:42;;;;;;;4.60;3.63;;;17.70;99.90;;;;;;5005944;28;20462;-71
2023/07/04 00:52:10;;;;;;;7.03;4.63;;;17.70;99.90;;;;;;5004652;28;20572;-71
2023/07/04 00:54:40;;;;;;;5.20;3.20;;;17.70;99.90;;;;;;5000646;28;20462;-71
2023/07/04 00:57:06;;;;;;;4.60;3.37;;;17.70;99.90;;;;;;5002262;28;20431;-71
2023/07/04 00:59:43;;;;;;;4.47;3.97;;;17.60;99.90;;;;;;4993289;28;20468;-71
2023/07/04 01:02:10;;;;;;;3.80;3.17;;;17.60;99.90;;;;;;4987253;28;20441;-71
2023/07/04 01:04:36;;;;;;;4.07;3.70;;;17.70;99.90;;;;;;4993862;28;20471;-71
2023/07/04 01:07:21;;;;;;;3.53;3.23;;;17.70;99.90;;;;;;4989746;28;20437;-71
2023/07/04 01:09:53;;;;;;;4.97;3.90;;;17.70;99.90;;;;;;4995040;28;20202;-71
2023/07/04 01:12:19;;;;;;;5.60;4.03;;;17.70;99.90;;;;;;4992669;28;20437;-71
2023/07/04 01:14:47;;;;;;;3.83;3.50;;;17.60;99.90;;;;;;4988556;28;20438;-71
2023/07/04 01:17:13;;;;;;;6.17;3.70;;;17.70;99.90;;;;;;4992837;28;20217;-71
2023/07/04 01:19:39;;;;;;;3.43;3.17;;;17.70;99.90;;;;;;5001994;28;20437;-71
2023/07/04 01:22:24;;;;;;;5.80;3.53;;;17.70;99.90;;;;;;5005185;28;20209;-71
2023/07/04 01:25:09;;;;;;;3.47;3.17;;;17.80;99.90;;;;;;4995012;28;20888;-71
2023/07/04 01:27:36;;;;;;;3.90;3.50;;;17.90;99.90;;;;;;4999180;28;20956;-71
2023/07/04 01:30:05;;;;;;;3.63;3.37;;;17.90;99.90;;;;;;4973875;28;20473;-71
2023/07/04 01:32:31;;;;;;;3.70;3.40;;;17.90;99.90;;;;;;4993017;28;20925;-71
2023/07/04 01:35:00;;;;;;;3.60;3.00;;;17.90;99.90;;;;;;5002856;28;21000;-71
2023/07/04 01:37:29;;;;;;;4.90;4.03;;;17.90;99.90;;;;;;5001685;28;20560;-71
2023/07/04 01:39:56;;;;;;;4.60;3.30;;;17.90;99.90;;;;;;4988242;28;20451;-71
2023/07/04 01:42:22;;;;;;;3.63;3.30;;;17.90;99.90;;;;;;4991806;28;20495;-71
2023/07/04 01:44:48;;;;;;;3.60;2.93;;;17.90;99.90;;;;;;4995794;28;20540;-71
2023/07/04 01:47:14;;;;;;;4.07;3.40;;;17.80;99.90;;;;;;4992276;28;20208;-71
2023/07/04 01:49:40;;;;;;;3.83;3.30;;;17.90;99.90;;;;;;4988485;28;20574;-71
2023/07/04 01:52:05;;;;;;;3.90;3.20;;;17.80;99.90;;;;;;4996599;28;20439;-71
2023/07/04 01:54:31;;;;;;;3.60;3.30;;;17.80;99.90;;;;;;4992527;28;20196;-71
2023/07/04 01:56:56;;;;;;;4.27;3.87;;;17.70;99.90;;;;;;4992968;28;20201;-71
2023/07/04 01:59:22;;;;;;;6.70;3.13;;;17.70;99.90;;;;;;4999668;28;20175;-71
2023/07/04 02:01:49;;;;;;;4.00;2.90;;;17.70;99.90;;;;;;4994104;28;20175;-71
2023/07/04 02:04:14;;;;;;;3.10;2.80;;;17.70;99.90;;;;;;4989867;28;20531;-69
2023/07/04 02:06:40;;;;;;;4.23;3.73;;;17.70;99.90;;;;;;4999098;28;20516;-69
2023/07/04 02:09:06;;;;;;;3.87;3.57;;;17.70;99.90;;;;;;4998665;28;20176;-69
2023/07/04 02:11:32;;;;;;;3.57;3.27;;;17.70;99.90;;;;;;5008376;28;20270;-69
2023/07/04 02:13:59;;;;;;;3.33;3.00;;;17.70;99.90;;;;;;4999448;28;20190;-70
2023/07/04 02:16:25;;;;;;;3.40;3.00;;;17.60;99.90;;;;;;5007109;28;20187;-69
2023/07/04 02:18:50;;;;;;;4.33;3.93;;;17.70;99.90;;;;;;4988933;28;20453;-69
2023/07/04 02:21:16;;;;;;;3.63;3.33;;;17.80;99.90;;;;;;4994300;28;20271;-70
2023/07/04 02:23:42;;;;;;;3.40;3.10;;;17.80;99.90;;;;;;5004934;28;20179;-69
2023/07/04 02:26:07;;;;;;;3.00;2.70;;;17.80;99.90;;;;;;4993735;28;20215;-70
2023/07/04 02:28:35;;;;;;;3.77;3.30;;;17.80;99.90;;;;;;4999239;28;20661;-69
2023/07/04 02:31:01;;;;;;;3.97;3.67;;;17.70;99.90;;;;;;4998979;28;20286;-70
2023/07/04 02:33:26;;;;;;;4.77;3.70;;;17.70;99.90;;;;;;4991271;28;20522;-69
2023/07/04 02:35:52;;;;;;;3.87;3.57;;;17.80;99.90;;;;;;4986380;28;20206;-70
2023/07/04 02:38:19;;;;;;;4.30;3.90;;;17.80;99.90;;;;;;4987534;28;20180;-70
2023/07/04 02:40:45;;;;;;;4.57;3.13;;;17.80;99.90;;;;;;4994127;28;20183;-69
2023/07/04 02:43:11;;;;;;;3.80;3.03;;;17.70;99.90;;;;;;4994357;28;20442;-69
2023/07/04 02:45:37;;;;;;;2.93;2.63;;;17.70;99.90;;;;;;4991773;28;20468;-69
2023/07/04 02:48:02;;;;;;;4.40;2.90;;;17.70;99.90;;;;;;4994045;28;20446;-69
2023/07/04 02:50:28;;;;;;;3.47;3.17;;;17.70;99.90;;;;;;4993594;28;20265;-69
2023/07/04 02:52:53;;;;;;;3.27;2.97;;;17.50;99.90;;;;;;4993276;28;20210;-70
2023/07/04 02:55:19;;;;;;;4.10;3.10;;;17.40;99.90;;;;;;4993890;28;20195;-69
2023/07/04 02:57:44;;;;;;;3.17;2.97;;;17.30;99.90;;;;;;5010266;28;20592;-69
2023/07/04 03:00:10;;;;;;;3.40;3.00;;;17.30;99.90;;;;;;4992404;28;20188;-70
2023/07/04 03:02:36;;;;;;;3.30;3.00;;;17.30;99.90;;;;;;5004784;28;20183;-69
2023/07/04 03:05:01;;;;;;;4.90;3.17;;;17.40;99.90;;;;;;5003789;28;20478;-69
2023/07/04 03:07:27;;;;;;;2.70;2.50;;;17.30;99.90;;;;;;4991709;28;20186;-70
2023/07/04 03:09:52;;;;;;;3.43;3.13;;;17.30;99.90;;;;;;4989486;28;20567;-69
2023/07/04 03:12:18;;;;;;;3.97;3.67;;;17.40;99.90;;;;;;4991855;28;20176;-69
2023/07/04 03:14:44;;;;;;;4.07;2.60;;;17.40;99.90;;;;;;4994218;28;20257;-70
2023/07/04 03:17:09;;;;;;;3.77;2.40;;;17.40;99.90;;;;;;4989157;28;20292;-70
2023/07/04 03:19:35;;;;;;;3.93;3.13;;;17.40;99.90;;;;;;4990775;28;20238;-70
2023/07/04 03:22:00;;;;;;;4.30;3.27;;;17.50;99.90;;;;;;4976117;28;20180;-69
2023/07/04 03:24:26;;;;;;;4.20;3.80;;;17.60;99.90;;;;;;4989785;28;20573;-69
2023/07/04 03:26:52;;;;;;;4.10;3.10;;;17.60;99.90;;;;;;5004321;28;20186;-69
2023/07/04 03:29:18;;;;;;;2.43;2.30;;;17.40;99.90;;;;;;4991487;28;20178;-69
2023/07/04 03:31:43;;;;;;;3.37;3.07;;;17.40;99.90;;;;;;4992359;28;20443;-69
2023/07/04 03:34:09;;;;;;;3.63;2.90;;;17.40;99.90;;;;;;4992079;28;20207;-69
2023/07/04 03:36:34;;;;;;;2.67;2.47;;;17.40;99.90;;;;;;4984170;28;20196;-69
2023/07/04 03:39:00;;;;;;;3.70;3.27;;;17.40;99.90;;;;;;4993629;28;20175;-69
2023/07/04 03:41:25;;;;;;;2.67;2.47;;;17.40;99.90;;;;;;5001266;28;20655;-69
2023/07/04 03:43:51;;;;;;;4.17;3.87;;;17.40;99.90;;;;;;5002943;28;20578;-69
2023/07/04 03:46:16;;;;;;;3.13;2.93;;;17.40;99.90;;;;;;5001075;28;20187;-69
2023/07/04 03:48:42;;;;;;;3.60;3.30;;;17.40;99.90;;;;;;4990859;28;20194;-69
2023/07/04 03:51:08;;;;;;;2.83;2.63;;;17.50;99.90;;;;;;4993392;28;20215;-69
2023/07/04 03:53:37;;;;;;;2.80;2.60;;;17.50;99.90;;;;;;4993571;28;20176;-69
2023/07/04 03:56:04;;;;;;;2.43;2.23;;;17.60;99.90;;;;;;4993303;28;20510;-70
2023/07/04 03:58:29;;;;;;;2.47;2.27;;;17.60;99.90;;;;;;4995600;28;20521;-69
2023/07/04 04:00:55;;;;;;;3.03;2.67;;;17.60;99.90;;;;;;5000670;28;20885;-70
2023/07/04 04:03:21;;;;;;;2.70;2.50;;;17.70;99.90;;;;;;4994081;28;20184;-70
2023/07/04 04:05:46;;;;;;;2.53;2.33;;;17.80;99.90;;;;;;4997457;28;20251;-70
2023/07/04 04:08:12;;;;;;;4.30;2.43;;;17.80;99.90;;;;;;4985287;28;20192;-70
2023/07/04 04:10:38;;;;;;;3.00;2.70;;;17.70;99.90;;;;;;4991760;28;20195;-70
2023/07/04 04:13:03;;;;;;;3.20;2.90;;;17.70;99.90;;;;;;4992043;28;20183;-70
2023/07/04 04:15:29;;;;;;;3.70;2.60;;;17.90;99.90;;;;;;4994949;28;20223;-70
2023/07/04 04:17:55;;;;;;;2.40;2.20;;;17.80;99.90;;;;;;5000100;28;20206;-70
2023/07/04 04:20:21;;;;;;;2.70;2.50;;;17.70;99.90;;;;;;4988114;28;20553;-70
2023/07/04 04:22:48;;;;;;;2.93;2.63;;;17.70;99.90;;;;;;4979858;28;20442;-68
2023/07/04 04:25:15;;;;;;;3.10;2.80;;;17.90;99.90;;;;;;4996693;28;20207;-70
2023/07/04 04:27:42;;;;;;;2.80;2.60;;;17.80;99.90;;;;;;4992312;28;20999;-70
2023/07/04 04:30:09;;;;;;;2.60;2.40;;;17.90;99.90;;;;;;4988531;28;20482;-70
2023/07/04 04:32:39;;;;;;;3.37;2.60;;;17.90;99.90;;;;;;4993016;28;20978;-70
2023/07/04 04:35:06;;;;;;;3.17;2.40;;;18.00;99.90;;;;;;4997944;28;20561;-70
2023/07/04 04:37:32;;;;;;;2.83;2.63;;;18.10;99.90;;;;;;4997809;28;20438;-70
2023/07/04 04:39:59;;;;;;;3.13;2.93;;;18.10;99.90;;;;;;4990535;28;20964;-70
2023/07/04 04:42:25;;;;;;;2.80;2.60;;;18.10;99.90;;;;;;4986929;28;20449;-70
2023/07/04 04:44:54;;;;;;;2.70;2.50;;;18.20;99.90;;;;;;4992568;28;21043;-71
2023/07/04 04:47:24;;;;;;;3.30;3.00;;;18.20;99.90;;;;;;5000460;28;20442;-70
2023/07/04 04:49:51;;;;;;;3.23;2.87;;;18.10;99.90;;;;;;5000042;28;20837;-70
2023/07/04 04:52:19;;;;;;;3.50;2.90;;;18.10;99.90;;;;;;4991180;28;20438;-68
2023/07/04 04:54:45;;;;;;;3.07;2.70;;;18.10;99.90;;;;;;4986112;28;20486;-69
2023/07/04 04:57:12;;;;;;;3.03;2.83;;;18.10;99.90;;;;;;4997904;28;20473;-70
2023/07/04 04:59:37;;;;;;;3.20;2.30;;;18.20;99.90;;;;;;5009832;28;20241;-70
2023/07/04 05:02:03;;;;;;;3.27;3.07;;;18.30;99.90;;;;;;5007644;28;20443;-70
2023/07/04 05:04:28;;;;;;;3.13;2.83;;;18.40;99.90;;;;;;5002647;28;20639;-70
2023/07/04 05:06:54;;;;;;;3.10;2.80;;;18.60;99.90;;;;;;5004761;28;20245;-70
2023/07/04 05:09:20;;;;;;;3.47;3.17;;;18.90;99.90;;;;;;5009247;28;20206;-70
2023/07/04 05:11:47;;;;;;;4.70;3.07;;;19.10;99.90;;;;;;5012600;28;20228;-70
2023/07/04 05:14:13;;;;;;;3.00;2.40;;;19.20;99.90;;;;;;5012943;28;20198;-70
2023/07/04 05:16:39;;;;;;;3.40;3.10;;;19.30;99.90;;;;;;5012744;28;20955;-70
2023/07/04 05:19:04;;;;;;;5.87;2.90;;;19.60;99.90;;;;;;5012314;28;20237;-70
2023/07/04 05:21:30;;;;;;;3.30;3.00;;;19.10;99.90;;;;;;5001684;28;20643;-70
2023/07/04 05:23:55;;;;;;;3.83;3.20;;;19.10;99.90;;;;;;5006019;28;20187;-70
2023/07/04 05:26:24;;;;;;;4.17;2.93;;;19.10;99.90;;;;;;5012370;28;20177;-70
2023/07/04 05:28:51;;;;;;;3.50;3.20;;;19.50;99.90;;;;;;5012448;28;20189;-70
2023/07/04 05:31:19;;;;;;;3.30;3.00;;;19.20;99.90;;;;;;5012417;28;20465;-70
2023/07/04 05:33:45;;;;;;;3.90;3.40;;;19.50;99.90;;;;;;5009776;28;20974;-70
2023/07/04 05:36:12;;;;;;;7.03;3.67;;;19.40;99.90;;;;;;5000761;28;20422;-70
2023/07/04 05:38:38;;;;;;;6.43;2.90;;;19.50;99.90;;;;;;5011291;28;20767;-70
2023/07/04 05:41:13;;;;;;;3.80;3.30;;;19.50;99.90;;;;;;4994455;28;20938;-69
2023/07/04 05:43:40;;;;;;;3.33;3.13;;;19.50;99.90;;;;;;5012215;28;20508;-70
2023/07/04 05:46:06;;;;;;;3.70;3.40;;;19.40;99.90;;;;;;5012312;28;20444;-70
2023/07/04 05:48:34;;;;;;;7.07;3.70;;;19.40;99.90;;;;;;5004935;28;20430;-70
2023/07/04 05:51:02;;;;;;;5.97;3.97;;;19.40;99.90;;;;;;5000556;28;20462;-70
2023/07/04 05:53:30;;;;;;;4.07;3.20;;;19.40;99.90;;;;;;5010025;28;20461;-70
2023/07/04 05:56:08;;;;;;;3.10;2.80;;;19.40;99.90;;;;;;5012496;28;20446;-70
2023/07/04 05:58:35;;;;;;;3.47;3.17;;;19.30;99.90;;;;;;5012633;28;20508;-70
2023/07/04 06:01:11;;;;;;;3.30;3.03;;;19.60;99.90;;;;;;5012150;28;20802;-70
2023/07/04 06:03:38;;;;;;;3.57;3.27;;;19.50;99.90;;;;;;5012053;28;20427;-70
2023/07/04 06:06:05;;;;;;;4.90;3.57;;;19.60;99.90;;;;;;5000197;28;20448;-71
2023/07/04 06:08:33;;;;;;;8.30;3.30;;;19.60;99.90;;;;;;5003578;28;20429;-70
2023/07/04 06:11:03;;;;;;;3.63;3.30;;;19.80;99.90;;;;;;5011732;28;20538;-70
2023/07/04 06:13:30;;;;;;;4.03;2.70;;;19.90;99.90;;;;;;5012012;28;20519;-71
2023/07/04 06:15:56;;;;;;;3.53;3.23;;;20.10;99.90;;;;;;4993702;28;20472;-70
2023/07/04 06:18:22;;;;;;;6.37;3.93;;;20.30;99.90;;;;;;4976542;28;20906;-70
2023/07/04 06:20:48;;;;;;;4.27;3.43;;;20.40;99.90;;;;;;4978542;28;20188;-70
2023/07/04 06:23:14;;;;;;;4.77;3.70;;;20.70;99.90;;;;;;5004688;28;20437;-70
2023/07/04 06:25:40;;;;;;;3.50;3.20;;;20.60;99.90;;;;;;5007422;28;20202;-71
2023/07/04 06:28:06;;;;;;;4.53;3.60;;;20.80;99.90;;;;;;5015631;28;20422;-70
2023/07/04 06:30:34;;;;;;;5.43;3.63;;;21.20;99.90;;;;;;5004127;28;20269;-71
2023/07/04 06:33:03;;;;;;;6.50;3.17;;;21.40;99.90;;;;;;4988769;28;20615;-71
2023/07/04 06:35:30;;;;;;;6.40;3.17;;;21.40;99.90;;;;;;4993829;28;20996;-71
2023/07/04 06:37:56;;;;;;;3.47;3.13;;;21.30;99.90;;;;;;4996399;28;20437;-71
2023/07/04 06:40:21;;;;;;;3.87;3.23;;;21.30;99.90;;;;;;4994553;28;20430;-71
2023/07/04 06:42:47;;;;;;;4.70;3.63;;;21.20;99.90;;;;;;5007145;28;20803;-71
2023/07/04 06:45:12;;;;;;;7.57;3.63;;;21.30;99.90;;;;;;5015267;28;20195;-71
2023/07/04 06:47:38;;;;;;;4.50;3.70;;;21.20;99.90;;;;;;5015307;28;20178;-71
2023/07/04 06:50:04;;;;;;;6.63;4.43;;;21.50;99.90;;;;;;5014873;28;20210;-70
2023/07/04 06:52:30;;;;;;;4.67;3.73;;;21.10;99.90;;;;;;5004973;28;20180;-71
2023/07/04 06:54:56;;;;;;;6.63;3.87;;;21.10;99.90;;;;;;5006882;28;20451;-70
2023/07/04 06:57:21;;;;;;;5.33;3.17;;;21.00;99.90;;;;;;5015120;28;20807;-71
2023/07/04 06:59:50;;;;;;;5.60;3.20;;;20.90;99.90;;;;;;5014865;28;20417;-71
2023/07/04 07:02:15;;;;;;;5.27;4.20;;;21.20;99.90;;;;;;5015090;28;20187;-69
2023/07/04 07:04:42;;;;;;;5.47;4.33;;;21.30;99.90;;;;;;5014679;28;20461;-69
2023/07/04 07:07:09;;;;;;;5.30;3.53;;;21.50;99.90;;;;;;4996669;28;20195;-69
2023/07/04 07:09:42;;;;;;;3.97;3.67;;;21.40;99.90;;;;;;5010852;28;20430;-69
2023/07/04 07:12:10;;;;;;;5.80;3.77;;;21.50;99.90;;;;;;4993581;28;20428;-68
2023/07/04 07:14:37;;;;;;;3.73;3.43;;;21.40;99.90;;;;;;4975726;28;20443;-68
2023/07/04 07:17:03;;;;;;;7.10;4.00;;;21.40;99.90;;;;;;4975696;28;20971;-69
2023/07/04 07:19:29;;;;;;;3.43;3.07;;;21.10;99.90;;;;;;4975340;28;20415;-68
2023/07/04 07:21:55;;;;;;;5.90;3.30;;;21.00;99.90;;;;;;5000237;28;20449;-69
2023/07/04 07:24:21;;;;;;;5.60;4.10;;;21.00;99.90;;;;;;5003592;28;20442;-67
2023/07/04 07:26:47;;;;;;;4.63;3.50;;;21.20;99.90;;;;;;5014267;28;20492;-68
2023/07/04 07:29:12;;;;;;;4.60;4.20;;;21.50;99.90;;;;;;5014275;28;20464;-68
2023/07/04 07:31:38;;;;;;;4.37;3.50;;;21.40;99.90;;;;;;5014740;28;20203;-69
2023/07/04 07:34:05;;;;;;;7.77;3.93;;;21.50;99.90;;;;;;5013851;28;20628;-68
2023/07/04 07:36:37;;;;;;;6.70;4.10;;;21.80;99.90;;;;;;5012319;28;20195;-68
2023/07/04 07:39:05;;;;;;;5.67;4.60;;;22.00;99.90;;;;;;5002564;28;20431;-69
2023/07/04 07:41:33;;;;;;;8.17;7.37;;;22.00;99.90;;;;;;5012615;28;20417;-69
2023/07/04 07:43:59;;;;;;;5.87;4.33;;;21.90;99.90;;;;;;5014112;28;20449;-69
2023/07/04 07:46:24;;;;;;;4.83;3.70;;;21.80;99.90;;;;;;5014372;28;20421;-68
2023/07/04 07:48:50;;;;;;;8.40;3.87;;;22.00;99.90;;;;;;5013863;28;20182;-70
2023/07/04 07:51:18;;;;;;;5.27;4.10;;;21.90;99.90;;;;;;5014141;28;20199;-68
2023/07/04 07:53:45;;;;;;;4.30;3.80;;;22.10;99.90;;;;;;5009619;28;20474;-68
2023/07/04 07:56:13;;;;;;;6.70;3.80;;;22.50;99.90;;;;;;4993349;28;20445;-69
2023/07/04 07:58:39;;;;;;;4.27;3.37;;;22.50;99.90;;;;;;5001923;28;20434;-69
2023/07/04 08:01:12;;;;;;;5.47;3.43;;;22.50;99.90;;;;;;4994373;28;20427;-70
2023/07/04 08:03:38;;;;;;;7.20;4.30;;;22.60;99.90;;;;;;4994178;28;20419;-69
2023/07/04 08:06:04;;;;;;;4.00;3.60;;;22.50;99.90;;;;;;4994752;28;20454;-67
2023/07/04 08:08:30;;;;;;;11.37;4.63;;;22.50;99.90;;;;;;4993929;28;20470;-67
2023/07/04 08:10:55;;;;;;;6.13;3.73;;;22.80;99.90;;;;;;4992740;28;20199;-67
2023/07/04 08:13:21;;;;;;;6.20;3.73;;;23.00;99.90;;;;;;5001626;28;20224;-68
2023/07/04 08:15:54;;;;;;;4.50;3.50;;;22.80;99.90;;;;;;4994128;28;20315;-67
2023/07/04 08:18:20;;;;;;;4.20;3.80;;;22.70;99.90;;;;;;4993890;28;20167;-68
2023/07/04 08:21:00;;;;;;;6.27;3.57;;;22.90;99.90;;;;;;4993720;28;20484;-67
2023/07/04 08:23:26;;;;;;;6.40;4.20;;;23.40;99.90;;;;;;4993925;28;20637;-67
2023/07/04 08:25:51;;;;;;;6.20;4.13;;;23.40;99.90;;;;;;4993660;28;20493;-67
2023/07/04 08:28:18;;;;;;;6.10;3.93;;;23.70;99.90;;;;;;5001021;28;20561;-68
2023/07/04 08:30:44;;;;;;;5.83;3.93;;;24.20;99.90;;;;;;4997750;28;20202;-67
2023/07/04 08:33:09;;;;;;;5.90;4.43;;;24.60;99.90;;;;;;5013290;28;20429;-67
2023/07/04 08:35:35;;;;;;;7.20;4.03;;;24.70;99.90;;;;;;5013282;28;20183;-68
2023/07/04 08:38:00;;;;;;;4.90;4.40;;;24.90;99.90;;;;;;5012463;28;20677;-67
2023/07/04 08:40:26;;;;;;;8.90;4.43;;;25.60;99.50;;;;;;5012952;28;20187;-68
2023/07/04 08:42:52;;;;;;;5.83;4.47;;;25.30;96.70;;;;;;5006606;28;20183;-67
2023/07/04 08:45:26;;;;;;;7.20;4.73;;;24.60;97.60;;;;;;4990567;28;20211;-68
2023/07/04 08:47:54;;;;;;;5.10;4.60;;;24.50;98.50;;;;;;4990899;28;20700;-68
2023/07/04 08:50:28;;;;;;;5.80;3.97;;;24.90;97.80;;;;;;4993022;28;20458;-68
2023/07/04 08:53:02;;;;;;;7.70;5.00;;;25.00;97.80;;;;;;4993419;28;20838;-68
2023/07/04 08:55:29;;;;;;;6.17;5.07;;;25.60;95.60;;;;;;4993388;28;20443;-68
2023/07/04 08:57:58;;;;;;;7.63;4.40;;;25.90;94.40;;;;;;4987984;28;20473;-68
2023/07/04 09:00:32;;;;;;;5.23;4.23;;;25.50;94.50;;;;;;5002039;28;20809;-67
2023/07/04 09:03:17;;;;;;;5.63;4.20;;;25.90;95.10;;;;;;5012778;28;20513;-67
2023/07/04 09:06:12;;;;;;;6.40;4.77;;;26.20;93.30;;;;;;5012598;28;20467;-68
2023/07/04 09:09:03;;;;;;;5.67;4.83;;;26.30;91.80;;;;;;5012579;28;20422;-67
2023/07/04 09:11:29;;;;;;;7.37;4.77;;;25.80;91.20;;;;;;5012523;28;21025;-67
2023/07/04 09:14:02;;;;;;;7.00;5.00;;;25.60;91.70;;;;;;5000506;28;20944;-67
2023/07/04 09:16:37;;;;;;;9.00;6.87;;;26.30;91.30;;;;;;5010750;28;20421;-67
2023/07/04 09:19:06;;;;;;;5.57;4.73;;;26.60;87.70;;;;;;5012265;28;20421;-68
2023/07/04 09:21:33;;;;;;;6.47;5.70;;;26.50;87.10;;;;;;5012685;28;20432;-68
2023/07/04 09:24:01;;;;;;;6.00;5.50;;;26.40;88.70;;;;;;5012486;28;20430;-67
2023/07/04 09:26:39;;;;;;;12.27;6.47;;;26.60;87.80;;;;;;5010093;28;20444;-67
2023/07/04 09:29:06;;;;;;;6.10;5.50;;;26.60;85.00;;;;;;5000681;28;20430;-66
2023/07/04 09:31:36;;;;;;;6.83;5.97;;;26.80;84.60;;;;;;5010963;28;20832;-69
2023/07/04 09:34:07;;;;;;;6.67;5.77;;;26.70;83.50;;;;;;5012376;28;20445;-68
2023/07/04 09:36:36;;;;;;;9.37;6.80;;;26.00;84.70;;;;;;5012292;28;20422;-68
2023/07/04 09:39:05;;;;;;;6.50;5.17;;;25.10;87.60;;;;;;5012040;28;20425;-67
2023/07/04 09:41:37;;;;;;;8.93;5.23;;;24.60;90.30;;;;;;5012047;28;20450;-69
2023/07/04 09:44:18;;;;;;;8.47;4.87;;;24.50;91.20;;;;;;4999694;28;20461;-67
2023/07/04 09:46:49;;;;;;;8.03;7.10;;;24.90;91.60;;;;;;4992588;28;20422;-67
2023/07/04 09:49:22;;;;;;;7.87;6.17;;;25.30;90.00;;;;;;4992508;28;20426;-67
2023/07/04 09:51:59;;;;;;;10.70;6.80;;;25.80;87.40;;;;;;4992570;28;20489;-67
2023/07/04 09:54:25;;;;;;;7.30;6.40;;;25.70;88.60;;;;;;4992466;28;20513;-68
2023/07/04 09:56:50;;;;;;;9.07;5.80;;;25.70;87.00;;;;;;4996319;28;20847;-69
2023/07/04 09:59:19;;;;;;;7.43;6.83;;;25.20;88.10;;;;;;5000124;28;20414;-68
2023/07/04 10:01:50;;;;;;;7.30;5.20;;;24.80;88.40;;;;;;5012005;28;20178;-68
2023/07/04 10:04:28;;;;;;;6.40;5.77;;;24.20;91.00;;;;;;5011811;28;21069;-68
2023/07/04 10:06:56;;;;;;;7.80;6.40;;;24.00;91.60;;;;;;5012293;28;20872;-68
2023/07/04 10:09:22;;;;;;;11.13;6.23;;;24.10;91.60;;;;;;5011749;28;20422;-67
2023/07/04 10:11:50;;;;;;;7.17;6.47;;;24.40;91.70;;;;;;4975735;28;21037;-67
2023/07/04 10:14:17;;;;;;;5.90;5.40;;;24.70;90.30;;;;;;5000038;28;20456;-68
2023/07/04 10:16:50;;;;;;;6.97;5.63;;;26.20;87.30;;;;;;4992463;28;20917;-68
2023/07/04 10:19:22;;;;;;;6.00;5.40;;;28.20;78.70;;;;;;4991644;28;20506;-71
2023/07/04 10:21:53;;;;;;;7.67;5.90;;;29.50;73.70;;;;;;4992310;28;20415;-69
2023/07/04 10:24:21;;;;;;;6.10;5.60;;;30.20;68.60;;;;;;4992347;28;20438;-71
2023/07/04 10:26:50;;;;;;;7.57;6.87;;;30.00;65.30;;;;;;4992513;28;20782;-69
2023/07/04 10:29:19;;;;;;;7.83;6.17;;;30.20;66.50;;;;;;4991740;28;20439;-71
2023/07/04 10:31:46;;;;;;;10.60;6.70;;;31.80;61.60;;;;;;4997294;28;20466;-70
2023/07/04 10:34:15;;;;;;;7.30;6.60;;;29.80;58.60;;;;;;4998702;28;20449;-70
2023/07/04 10:36:43;;;;;;;6.70;5.93;;;28.70;61.30;;;;;;5004481;28;20943;-68
2023/07/04 10:39:12;;;;;;;7.00;6.30;;;27.10;65.10;;;;;;5012859;28;20421;-68
2023/07/04 10:41:51;;;;;;;6.67;5.93;;;26.30;68.20;;;;;;5012093;28;20426;-68
2023/07/04 10:44:21;;;;;;;8.37;6.80;;;25.80;68.50;;;;;;4986187;28;20447;-70
2023/07/04 10:47:10;;;;;;;6.90;6.20;;;25.90;70.00;;;;;;4985551;28;20446;-67
2023/07/04 10:49:47;;;;;;;7.40;6.77;;;27.90;67.80;;;;;;5003188;28;20440;-67
2023/07/04 10:52:19;;;;;;;6.57;5.97;;;28.40;63.50;;;;;;5011843;28;20413;-67
2023/07/04 10:54:44;;;;;;;9.23;6.10;;;27.80;63.70;;;;;;4972578;28;20451;-67
2023/07/04 10:57:36;;;;;;;7.83;6.10;;;27.00;65.30;;;;;;4972554;28;20415;-67
2023/07/04 11:00:09;;;;;;;6.73;6.00;;;26.60;67.20;;;;;;4972823;28;20216;-68
2023/07/04 11:02:44;;;;;;;7.97;6.43;;;26.20;67.50;;;;;;4981492;28;20451;-68
2023/07/04 11:05:14;;;;;;;6.90;5.13;;;26.40;68.10;;;;;;5002299;28;20475;-68
2023/07/04 11:07:43;;;;;;;7.80;6.83;;;26.60;66.10;;;;;;5009385;28;20529;-68
2023/07/04 11:10:12;;;;;;;8.80;6.03;;;26.90;68.30;;;;;;5009898;28;20465;-68
2023/07/04 11:12:39;;;;;;;7.60;6.90;;;28.40;63.60;;;;;;5014784;28;20752;-68
2023/07/04 11:15:18;;;;;;;6.10;5.50;;;29.20;60.70;;;;;;5014651;28;20959;-68
2023/07/04 11:17:45;;;;;;;7.27;6.43;;;30.20;58.80;;;;;;5014806;28;20424;-68
2023/07/04 11:20:38;;;;;;;11.13;5.37;;;31.90;56.00;;;;;;5009743;28;20481;-68
2023/07/04 11:23:13;;;;;;;6.30;5.67;;;30.60;54.00;;;;;;4972715;28;20452;-68
2023/07/04 11:25:42;;;;;;;7.43;6.33;;;28.90;55.60;;;;;;5014263;28;20499;-68
2023/07/04 11:28:34;;;;;;;8.00;6.23;;;28.00;57.10;;;;;;5014405;28;20420;-68
2023/07/04 11:31:18;;;;;;;7.33;5.00;;;27.60;58.50;;;;;;5014240;28;20454;-68
2023/07/04 11:33:52;;;;;;;7.03;5.93;;;27.30;59.60;;;;;;5014445;28;20428;-68
2023/07/04 11:36:25;;;;;;;5.33;4.80;;;28.00;60.50;;;;;;5006609;28;20434;-68
2023/07/04 11:38:59;;;;;;;6.47;5.53;;;30.40;56.40;;;;;;5005885;28;20517;-66
2023/07/04 11:41:28;;;;;;;5.97;5.40;;;32.70;52.50;;;;;;5014135;28;20425;-65
2023/07/04 11:43:54;;;;;;;7.20;5.80;;;32.50;48.90;;;;;;5014297;28;20421;-65
2023/07/04 11:46:25;;;;;;;7.23;5.40;;;32.40;49.50;;;;;;5014320;28;20422;-66
2023/07/04 11:48:54;;;;;;;4.67;4.30;;;34.40;46.90;;;;;;5013954;28;20417;-66
2023/07/04 11:51:22;;;;;;;5.40;4.70;;;34.20;45.00;;;;;;5014297;28;20464;-66
2023/07/04 11:54:06;;;;;;;6.10;5.60;;;33.80;44.00;;;;;;5001736;28;20438;-66
2023/07/04 11:56:32;;;;;;;5.60;5.03;;;33.80;44.30;;;;;;5012599;28;20472;-66
2023/07/04 11:59:16;;;;;;;6.83;5.60;;;33.50;44.60;;;;;;4997359;28;20423;-65
2023/07/04 12:01:51;;;;;;;5.10;4.70;;;34.50;43.10;;;;;;4994311;28;20180;-66
2023/07/04 12:04:41;;;;;;;4.50;4.10;;;35.70;41.70;;;;;;4994262;28;20469;-66
2023/07/04 12:07:37;;;;;;;5.83;4.87;;;37.10;38.80;;;;;;4977338;28;20497;-66
2023/07/04 12:10:19;;;;;;;4.80;4.30;;;34.60;38.10;;;;;;4996654;28;20454;-66
2023/07/04 12:12:48;;;;;;;5.00;4.50;;;34.30;38.60;;;;;;4992978;28;20793;-66
2023/07/04 12:15:20;;;;;;;5.63;5.20;;;36.80;37.80;;;;;;4994167;28;20523;-66
2023/07/04 12:17:48;;;;;;;6.17;5.60;;;37.20;36.40;;;;;;4994215;28;20419;-66
2023/07/04 12:20:17;;;;;;;6.60;6.10;;;35.30;37.10;;;;;;4993691;28;20423;-67
2023/07/04 12:22:54;;;;;;;6.17;5.57;;;33.50;38.90;;;;;;4993948;28;20423;-66
2023/07/04 12:25:25;;;;;;;6.13;5.60;;;32.60;40.60;;;;;;5000234;28;20468;-66
2023/07/04 12:27:56;;;;;;;6.77;6.27;;;31.30;41.60;;;;;;5005295;28;20472;-66
2023/07/04 12:30:22;;;;;;;6.23;5.73;;;30.40;42.20;;;;;;5013230;28;20498;-66
2023/07/04 12:32:51;;;;;;;6.00;5.50;;;29.80;43.00;;;;;;5013441;28;20432;-66
2023/07/04 12:35:19;;;;;;;5.90;5.40;;;29.50;44.20;;;;;;5013213;28;20441;-66
2023/07/04 12:37:48;;;;;;;6.07;5.50;;;30.00;43.90;;;;;;5013223;28;20452;-67
2023/07/04 12:40:17;;;;;;;6.00;5.40;;;30.10;43.80;;;;;;5004010;28;20446;-66
2023/07/04 12:42:44;;;;;;;5.60;4.70;;;30.30;43.70;;;;;;4999560;28;20797;-67
2023/07/04 12:45:15;;;;;;;5.57;5.07;;;31.30;41.70;;;;;;5008528;28;20449;-66
2023/07/04 12:47:43;;;;;;;6.83;4.00;;;31.30;41.80;;;;;;5013264;28;20430;-66
2023/07/04 12:50:10;;;;;;;4.90;4.60;;;32.00;41.30;;;;;;5012679;28;20595;-67
2023/07/04 12:52:37;;;;;;;5.23;4.73;;;33.20;40.00;;;;;;5013002;28;20976;-67